Time;durP1;ratioP1;P1;durP2;ratioP2;P2;SDS_P1;SDS_P2;PMS_P1;PMS_P2;Temp;Humidity;BMP_temperature;BMP_pressure;BME280_temperature;BME280_humidity;BME280_pressure;Samples;Min_cycle;Max_cycle;Signal;HPM_P1;HPM_P2
2024/03/24 00:01:31;;;;;;;0.52;0.17;;;7.40;99.80;;;;;;4132929;28;20058;-56
2024/03/24 00:03:33;;;;;;;4.07;0.25;;;7.30;99.40;;;;;;4132825;28;20043;-55
2024/03/24 00:05:34;;;;;;;0.77;0.30;;;7.30;99.90;;;;;;4132854;28;20046;-56
2024/03/24 00:07:37;;;;;;;1.55;0.88;;;7.50;99.90;;;;;;4132899;28;20430;-56
2024/03/24 00:09:38;;;;;;;0.40;0.30;;;7.50;99.90;;;;;;4132626;28;20050;-55
2024/03/24 00:11:43;;;;;;;0.20;0.20;;;7.60;99.90;;;;;;4132427;28;20529;-55
2024/03/24 00:13:44;;;;;;;0.22;0.20;;;7.50;99.80;;;;;;4132239;28;20054;-55
2024/03/24 00:15:45;;;;;;;1.27;0.20;;;7.40;99.90;;;;;;4132657;28;20054;-56
2024/03/24 00:17:47;;;;;;;0.45;0.20;;;7.30;99.30;;;;;;4132865;28;20054;-57
2024/03/24 00:19:48;;;;;;;1.17;1.08;;;7.30;99.30;;;;;;4133422;28;20114;-57
2024/03/24 00:21:50;;;;;;;0.30;0.30;;;7.30;99.90;;;;;;4132958;28;20474;-56
2024/03/24 00:23:52;;;;;;;0.50;0.50;;;7.20;99.30;;;;;;4132714;28;20064;-54
2024/03/24 00:25:54;;;;;;;0.98;0.65;;;7.30;99.70;;;;;;4132837;28;20458;-56
2024/03/24 00:27:55;;;;;;;0.10;0.10;;;7.30;99.90;;;;;;4132165;28;20038;-56
2024/03/24 00:29:56;;;;;;;1.27;0.85;;;7.20;99.30;;;;;;4132512;28;20073;-54
2024/03/24 00:31:58;;;;;;;0.20;0.20;;;7.20;99.70;;;;;;4132373;28;20482;-56
2024/03/24 00:33:59;;;;;;;0.38;0.20;;;7.30;99.90;;;;;;4132205;28;20060;-55
2024/03/24 00:36:00;;;;;;;2.20;1.15;;;7.30;99.70;;;;;;4116222;28;20073;-56
2024/03/24 00:38:02;;;;;;;0.50;0.20;;;7.30;99.70;;;;;;4132356;28;20050;-55
2024/03/24 00:40:06;;;;;;;0.77;0.55;;;7.20;99.70;;;;;;4142534;28;20054;-56
2024/03/24 00:42:08;;;;;;;0.32;0.30;;;7.30;99.80;;;;;;4148329;28;20476;-56
2024/03/24 00:44:09;;;;;;;0.45;0.28;;;7.30;99.40;;;;;;4148940;28;20053;-56
2024/03/24 00:46:11;;;;;;;0.65;0.30;;;7.30;99.80;;;;;;4148814;28;20053;-55
2024/03/24 00:48:12;;;;;;;0.85;0.20;;;7.40;99.80;;;;;;4148366;28;20374;-56
2024/03/24 00:50:14;;;;;;;6.43;0.70;;;7.40;99.40;;;;;;4148239;28;20074;-56
2024/03/24 00:52:15;;;;;;;0.20;0.20;;;7.30;99.90;;;;;;4148341;28;20518;-56
2024/03/24 00:54:17;;;;;;;0.38;0.38;;;7.40;99.90;;;;;;4148182;28;20056;-56
2024/03/24 00:56:20;;;;;;;0.75;0.57;;;7.30;99.80;;;;;;4147830;28;20088;-56
2024/03/24 00:58:21;;;;;;;0.28;0.20;;;7.30;99.80;;;;;;4148122;28;20056;-55
2024/03/24 01:00:23;;;;;;;1.05;0.30;;;7.20;99.70;;;;;;4147794;28;20057;-55
2024/03/24 01:02:26;;;;;;;1.00;0.30;;;7.30;99.90;;;;;;4148254;28;20503;-56
2024/03/24 01:04:27;;;;;;;0.93;0.20;;;7.30;99.90;;;;;;4148096;28;20076;-55
2024/03/24 01:06:29;;;;;;;0.20;0.20;;;7.30;99.70;;;;;;4147988;28;20042;-55
2024/03/24 01:08:31;;;;;;;0.20;0.20;;;7.30;99.40;;;;;;4148114;28;20394;-54
2024/03/24 01:10:36;;;;;;;0.90;0.47;;;7.40;99.70;;;;;;4148121;28;20053;-54
2024/03/24 01:12:39;;;;;;;1.67;0.80;;;7.40;99.50;;;;;;4148029;28;20070;-53
2024/03/24 01:14:40;;;;;;;0.20;0.10;;;7.40;99.70;;;;;;4147690;28;20049;-54
2024/03/24 01:16:41;;;;;;;0.22;0.22;;;7.30;99.40;;;;;;4147883;28;20054;-55
2024/03/24 01:18:44;;;;;;;3.40;0.82;;;7.30;99.70;;;;;;4147705;28;20076;-56
2024/03/24 01:20:46;;;;;;;0.30;0.30;;;7.40;99.70;;;;;;4147563;28;20404;-55
2024/03/24 01:22:47;;;;;;;0.98;0.30;;;7.40;99.50;;;;;;4147669;28;20054;-56
2024/03/24 01:24:49;;;;;;;0.30;0.20;;;7.30;99.30;;;;;;4148059;28;20072;-56
2024/03/24 01:26:50;;;;;;;0.20;0.10;;;7.40;99.80;;;;;;4147635;28;20485;-63
2024/03/24 01:28:53;;;;;;;1.70;0.40;;;7.30;99.80;;;;;;4147771;28;20053;-57
2024/03/24 01:30:54;;;;;;;0.50;0.47;;;7.40;99.60;;;;;;4147787;28;20054;-57
2024/03/24 01:32:56;;;;;;;6.40;2.58;;;7.40;99.80;;;;;;4147849;28;20060;-57
2024/03/24 01:34:57;;;;;;;0.17;0.13;;;7.30;99.40;;;;;;4147580;28;20072;-57
2024/03/24 01:36:59;;;;;;;0.95;0.20;;;7.30;99.70;;;;;;4147337;28;20057;-56
2024/03/24 01:39:00;;;;;;;0.15;0.10;;;7.30;99.70;;;;;;4147391;28;20092;-58
2024/03/24 01:41:01;;;;;;;0.55;0.20;;;7.30;99.50;;;;;;4146963;28;20042;-57
2024/03/24 01:43:06;;;;;;;0.35;0.30;;;7.30;99.60;;;;;;4147417;28;20049;-57
2024/03/24 01:45:09;;;;;;;0.10;0.10;;;7.30;99.50;;;;;;4147572;28;20049;-57
2024/03/24 01:47:11;;;;;;;0.50;0.43;;;7.30;99.70;;;;;;4147518;28;20394;-56
2024/03/24 01:49:12;;;;;;;0.52;0.43;;;7.30;99.70;;;;;;4147142;28;20054;-58
2024/03/24 01:51:15;;;;;;;2.22;0.68;;;7.20;99.20;;;;;;4147118;28;20057;-54
2024/03/24 01:53:17;;;;;;;0.20;0.20;;;7.10;99.30;;;;;;4147210;28;20046;-58
2024/03/24 01:55:18;;;;;;;0.77;0.25;;;7.20;99.60;;;;;;4130484;28;20054;-56
2024/03/24 01:57:20;;;;;;;0.17;0.17;;;7.20;99.70;;;;;;4147309;28;20054;-56
2024/03/24 01:59:21;;;;;;;6.55;1.60;;;7.20;99.70;;;;;;4147203;28;20054;-56
2024/03/24 02:01:24;;;;;;;3.17;0.77;;;7.20;99.90;;;;;;4147050;28;20064;-57
2024/03/24 02:03:27;;;;;;;0.55;0.30;;;7.30;99.90;;;;;;4147012;28;20045;-56
2024/03/24 02:05:30;;;;;;;0.57;0.30;;;7.20;99.60;;;;;;4147335;28;20046;-57
2024/03/24 02:07:32;;;;;;;0.65;0.47;;;7.20;99.80;;;;;;4146982;28;20053;-56
2024/03/24 02:09:33;;;;;;;2.15;0.95;;;7.20;99.60;;;;;;4146776;28;20050;-56
2024/03/24 02:11:34;;;;;;;1.02;0.93;;;7.10;99.50;;;;;;4146335;28;20042;-56
2024/03/24 02:13:36;;;;;;;5.72;0.75;;;7.20;99.90;;;;;;4147138;28;20045;-56
2024/03/24 02:15:37;;;;;;;1.65;1.13;;;7.20;99.70;;;;;;4146596;28;20501;-57
2024/03/24 02:17:40;;;;;;;1.40;0.30;;;7.20;99.60;;;;;;4130559;28;20050;-56
2024/03/24 02:19:41;;;;;;;0.85;0.60;;;7.20;99.50;;;;;;4146767;28;20053;-57
2024/03/24 02:21:42;;;;;;;0.10;0.10;;;7.20;99.70;;;;;;4146727;28;20038;-56
2024/03/24 02:23:45;;;;;;;0.28;0.28;;;7.20;99.30;;;;;;4130202;28;20054;-55
2024/03/24 02:25:47;;;;;;;1.30;0.90;;;7.10;99.60;;;;;;4146885;28;20050;-57
2024/03/24 02:27:48;;;;;;;2.47;0.32;;;7.10;99.60;;;;;;4147304;28;20425;-55
2024/03/24 02:29:49;;;;;;;4.05;1.20;;;7.10;99.50;;;;;;4146830;28;20046;-57
2024/03/24 02:31:50;;;;;;;0.20;0.20;;;7.20;99.40;;;;;;4147034;28;20429;-56
2024/03/24 02:33:52;;;;;;;0.68;0.40;;;7.20;99.80;;;;;;4146615;28;20058;-55
2024/03/24 02:35:53;;;;;;;6.40;1.15;;;7.20;99.30;;;;;;4146461;28;20064;-56
2024/03/24 02:37:55;;;;;;;1.58;0.45;;;7.20;99.40;;;;;;4146456;28;20346;-57
2024/03/24 02:39:57;;;;;;;1.13;0.98;;;7.20;99.90;;;;;;4146484;28;20056;-57
2024/03/24 02:41:59;;;;;;;1.58;0.82;;;7.20;99.80;;;;;;4130308;28;20049;-56
2024/03/24 02:44:00;;;;;;;0.80;0.30;;;7.30;99.80;;;;;;4146783;28;20049;-56
2024/03/24 02:46:01;;;;;;;0.20;0.17;;;7.30;99.50;;;;;;4130275;28;20054;-56
2024/03/24 02:48:04;;;;;;;0.52;0.47;;;7.30;99.10;;;;;;4146518;28;20050;-56
2024/03/24 02:50:06;;;;;;;0.65;0.20;;;7.20;99.50;;;;;;4146540;28;20058;-56
2024/03/24 02:52:07;;;;;;;16.20;0.95;;;7.10;98.80;;;;;;4146123;28;20050;-55
2024/03/24 02:54:08;;;;;;;1.20;0.22;;;7.10;99.50;;;;;;4146473;28;20385;-56
2024/03/24 02:56:11;;;;;;;0.52;0.45;;;7.10;99.10;;;;;;4146454;28;20042;-57
2024/03/24 02:58:13;;;;;;;1.23;0.47;;;7.20;99.80;;;;;;4146726;28;20493;-56
2024/03/24 03:00:15;;;;;;;2.30;1.02;;;7.10;99.10;;;;;;4146611;28;20178;-57
2024/03/24 03:02:16;;;;;;;0.25;0.25;;;7.10;98.90;;;;;;4146657;28;20425;-55
2024/03/24 03:04:18;;;;;;;6.60;1.65;;;7.00;99.00;;;;;;4146602;28;20046;-57
2024/03/24 03:06:20;;;;;;;0.40;0.22;;;7.00;99.30;;;;;;4146035;28;20049;-56
2024/03/24 03:08:21;;;;;;;4.20;0.93;;;7.00;99.30;;;;;;4144818;28;20042;-56
2024/03/24 03:10:22;;;;;;;0.30;0.20;;;7.10;99.30;;;;;;4129821;28;20050;-56
2024/03/24 03:12:25;;;;;;;3.80;1.73;;;7.00;99.10;;;;;;4146047;28;20057;-55
2024/03/24 03:14:27;;;;;;;0.30;0.30;;;7.10;99.40;;;;;;4146037;28;20048;-56
2024/03/24 03:16:28;;;;;;;2.25;0.47;;;7.10;99.60;;;;;;4146519;28;20068;-56
2024/03/24 03:18:29;;;;;;;3.33;0.93;;;7.10;99.20;;;;;;4146091;28;20429;-57
2024/03/24 03:20:31;;;;;;;1.38;0.82;;;7.10;99.20;;;;;;4146356;28;20045;-57
2024/03/24 03:22:32;;;;;;;0.20;0.20;;;7.00;98.90;;;;;;4145672;28;20049;-57
2024/03/24 03:24:34;;;;;;;0.70;0.70;;;7.10;99.30;;;;;;4148926;28;20062;-57
2024/03/24 03:26:35;;;;;;;1.90;0.75;;;7.10;99.30;;;;;;4149557;28;20566;-57
2024/03/24 03:28:38;;;;;;;0.10;0.10;;;7.10;99.30;;;;;;4133203;28;20052;-57
2024/03/24 03:30:40;;;;;;;0.10;0.10;;;7.10;99.40;;;;;;4149632;28;20056;-58
2024/03/24 03:32:41;;;;;;;0.13;0.13;;;7.20;99.50;;;;;;4149269;28;20046;-57
2024/03/24 03:34:43;;;;;;;0.68;0.32;;;7.10;98.80;;;;;;4149182;28;20381;-55
2024/03/24 03:36:44;;;;;;;5.03;0.60;;;7.10;98.90;;;;;;4149047;28;20050;-56
2024/03/24 03:38:46;;;;;;;0.63;0.13;;;7.20;98.80;;;;;;4149442;28;20050;-55
2024/03/24 03:40:47;;;;;;;2.63;0.40;;;7.20;98.70;;;;;;4140554;28;20522;-56
2024/03/24 03:42:48;;;;;;;1.48;0.30;;;7.00;98.70;;;;;;4149081;28;20068;-56
2024/03/24 03:44:52;;;;;;;0.57;0.45;;;7.10;99.10;;;;;;4149160;28;20046;-55
2024/03/24 03:46:54;;;;;;;4.77;1.37;;;7.10;99.10;;;;;;4149344;28;20056;-55
2024/03/24 03:48:55;;;;;;;2.08;0.82;;;7.00;99.40;;;;;;4149226;28;20064;-56
2024/03/24 03:50:56;;;;;;;4.72;0.50;;;7.10;99.70;;;;;;4148777;28;20107;-55
2024/03/24 03:52:58;;;;;;;0.30;0.20;;;7.10;99.00;;;;;;4148934;28;20052;-55
2024/03/24 03:55:09;;;;;;;0.57;0.40;;;7.10;99.30;;;;;;4148869;28;20049;-56
2024/03/24 03:57:10;;;;;;;2.42;0.88;;;7.00;98.70;;;;;;4149320;28;20474;-56
2024/03/24 03:59:12;;;;;;;2.53;0.93;;;7.00;99.30;;;;;;4148993;28;20060;-55
2024/03/24 04:01:15;;;;;;;0.77;0.50;;;7.10;99.30;;;;;;4148851;28;20050;-55
2024/03/24 04:03:16;;;;;;;1.45;0.40;;;7.10;98.70;;;;;;4148904;28;20104;-56
2024/03/24 04:05:18;;;;;;;1.17;0.25;;;7.20;99.50;;;;;;4147194;28;20072;-56
2024/03/24 04:07:19;;;;;;;2.05;1.02;;;7.20;99.00;;;;;;4148650;28;20038;-56
2024/03/24 04:09:21;;;;;;;0.45;0.20;;;7.20;99.40;;;;;;4148776;28;20156;-56
2024/03/24 04:11:22;;;;;;;1.40;0.40;;;7.20;99.20;;;;;;4132444;28;20056;-56
2024/03/24 04:13:23;;;;;;;2.60;0.65;;;7.10;99.00;;;;;;4148600;28;20056;-56
2024/03/24 04:15:25;;;;;;;7.53;0.68;;;7.20;99.50;;;;;;4148513;28;20058;-56
2024/03/24 04:17:28;;;;;;;6.47;0.98;;;7.00;98.90;;;;;;4148564;28;20056;-56
2024/03/24 04:19:29;;;;;;;7.68;0.95;;;6.90;98.70;;;;;;4148167;28;20049;-57
2024/03/24 04:21:31;;;;;;;1.58;0.98;;;6.80;98.80;;;;;;4148384;28;20064;-56
2024/03/24 04:23:32;;;;;;;1.95;0.93;;;6.80;99.10;;;;;;4148377;28;20053;-55
2024/03/24 04:25:34;;;;;;;0.63;0.45;;;6.80;99.40;;;;;;4148422;28;20049;-56
2024/03/24 04:27:35;;;;;;;0.13;0.13;;;6.80;99.00;;;;;;4148186;28;20100;-56
2024/03/24 04:29:36;;;;;;;1.60;1.33;;;6.80;99.40;;;;;;4148440;28;20045;-55
2024/03/24 04:31:38;;;;;;;1.35;0.20;;;6.70;99.60;;;;;;4132080;28;20060;-55
2024/03/24 04:33:41;;;;;;;0.88;0.63;;;6.70;99.40;;;;;;4147265;28;20052;-56
2024/03/24 04:35:43;;;;;;;0.47;0.30;;;6.70;99.70;;;;;;4148075;28;20056;-55
2024/03/24 04:37:44;;;;;;;0.65;0.52;;;6.70;99.40;;;;;;4148243;28;20050;-56
2024/03/24 04:39:46;;;;;;;0.65;0.63;;;6.70;99.30;;;;;;4147790;28;20057;-54
2024/03/24 04:41:48;;;;;;;3.08;0.47;;;6.60;99.50;;;;;;4146021;28;20053;-55
2024/03/24 04:43:50;;;;;;;1.63;0.57;;;6.70;99.80;;;;;;4131715;28;20386;-55
2024/03/24 04:45:51;;;;;;;0.20;0.20;;;6.80;99.70;;;;;;4132059;28;20054;-56
2024/03/24 04:47:53;;;;;;;0.98;0.57;;;6.80;99.50;;;;;;4115755;28;20059;-56
2024/03/24 04:49:55;;;;;;;0.20;0.20;;;6.70;99.20;;;;;;4131422;28;20404;-56
2024/03/24 04:51:57;;;;;;;0.65;0.65;;;6.60;99.20;;;;;;4131755;28;20502;-56
2024/03/24 04:53:58;;;;;;;2.45;1.23;;;6.60;99.90;;;;;;4131769;28;20044;-55
2024/03/24 04:56:00;;;;;;;1.15;0.88;;;6.70;99.90;;;;;;4131695;28;20065;-55
2024/03/24 04:58:01;;;;;;;3.40;1.25;;;6.70;99.50;;;;;;4131603;28;20047;-55
2024/03/24 05:00:07;;;;;;;0.95;0.50;;;6.70;99.30;;;;;;4131870;28;20054;-56
2024/03/24 05:02:08;;;;;;;2.47;0.63;;;6.80;99.40;;;;;;4131601;28;20057;-65
2024/03/24 05:04:10;;;;;;;2.05;0.85;;;6.60;99.40;;;;;;4131334;28;20056;-56
2024/03/24 05:06:13;;;;;;;0.43;0.30;;;6.60;99.50;;;;;;4131798;28;20054;-55
2024/03/24 05:08:14;;;;;;;1.02;0.93;;;6.60;99.70;;;;;;4131466;28;20042;-56
2024/03/24 05:10:17;;;;;;;4.32;0.50;;;6.70;99.70;;;;;;4131434;28;20520;-56
2024/03/24 05:12:19;;;;;;;1.88;1.10;;;6.70;99.60;;;;;;4131299;28;20046;-56
2024/03/24 05:14:20;;;;;;;2.15;0.40;;;6.70;99.80;;;;;;4131420;28;20478;-55
2024/03/24 05:16:22;;;;;;;1.33;0.55;;;6.70;99.60;;;;;;4131534;28;20046;-55
2024/03/24 05:18:23;;;;;;;0.55;0.28;;;6.70;99.90;;;;;;4130850;28;20054;-56
2024/03/24 05:20:24;;;;;;;1.00;0.60;;;6.70;99.40;;;;;;4131310;28;20038;-56
2024/03/24 05:22:27;;;;;;;0.57;0.28;;;6.70;99.30;;;;;;4131244;28;20050;-55
2024/03/24 05:24:29;;;;;;;5.00;0.77;;;6.80;99.90;;;;;;4115281;28;20510;-56
2024/03/24 05:26:30;;;;;;;4.07;1.20;;;6.80;99.80;;;;;;4131456;28;20423;-55
2024/03/24 05:28:32;;;;;;;0.68;0.30;;;6.80;99.40;;;;;;4131373;28;20072;-55
2024/03/24 05:30:33;;;;;;;0.77;0.40;;;6.70;99.20;;;;;;4131052;28;20050;-56
2024/03/24 05:32:35;;;;;;;1.27;0.90;;;6.70;99.00;;;;;;4130809;28;20050;-57
2024/03/24 05:34:37;;;;;;;0.52;0.43;;;6.70;99.50;;;;;;4131165;28;20042;-56
2024/03/24 05:36:38;;;;;;;0.60;0.30;;;6.70;99.50;;;;;;4131155;28;20499;-55
2024/03/24 05:38:40;;;;;;;2.72;1.08;;;6.70;99.50;;;;;;4131346;28;20050;-56
2024/03/24 05:40:42;;;;;;;1.15;0.65;;;6.70;99.20;;;;;;4146410;28;20060;-56
2024/03/24 05:42:43;;;;;;;0.52;0.40;;;6.70;99.30;;;;;;4147294;28;20046;-57
2024/03/24 05:44:45;;;;;;;3.92;1.27;;;6.70;99.50;;;;;;4147233;28;20497;-56
2024/03/24 05:46:48;;;;;;;1.15;0.40;;;6.60;99.40;;;;;;4146051;28;20064;-55
2024/03/24 05:48:49;;;;;;;0.95;0.60;;;6.70;99.60;;;;;;4147417;28;20050;-55
2024/03/24 05:50:57;;;;;;;0.85;0.70;;;6.60;99.50;;;;;;4152441;28;20049;-56
2024/03/24 05:52:58;;;;;;;0.20;0.20;;;6.70;99.60;;;;;;4147242;28;20312;-57
2024/03/24 05:55:01;;;;;;;3.45;1.55;;;6.80;99.90;;;;;;4163522;28;20053;-56
2024/03/24 05:57:03;;;;;;;0.75;0.63;;;6.70;99.40;;;;;;4163341;28;20103;-57
2024/03/24 05:59:05;;;;;;;0.30;0.30;;;6.80;99.50;;;;;;4163627;28;20049;-56
2024/03/24 06:01:07;;;;;;;1.35;0.28;;;6.80;99.30;;;;;;4163127;28;20055;-56
2024/03/24 06:03:08;;;;;;;0.60;0.50;;;6.80;99.20;;;;;;4163796;28;20064;-56
2024/03/24 06:05:11;;;;;;;0.88;0.82;;;6.80;99.30;;;;;;4163446;28;20063;-57
2024/03/24 06:07:12;;;;;;;1.00;0.50;;;6.80;99.20;;;;;;4163561;28;20045;-55
2024/03/24 06:09:14;;;;;;;3.88;0.70;;;6.90;99.10;;;;;;4163242;28;20045;-56
2024/03/24 06:11:16;;;;;;;1.27;0.52;;;6.80;99.00;;;;;;4163117;28;20045;-54
2024/03/24 06:13:18;;;;;;;0.45;0.32;;;6.80;99.50;;;;;;4146976;28;20046;-57
2024/03/24 06:15:19;;;;;;;0.35;0.20;;;6.80;99.10;;;;;;4162669;28;20053;-57
2024/03/24 06:17:20;;;;;;;1.40;0.40;;;6.80;99.20;;;;;;4163043;28;20049;-55
2024/03/24 06:19:22;;;;;;;0.85;0.40;;;6.90;99.20;;;;;;4163251;28;20060;-54
2024/03/24 06:21:23;;;;;;;0.40;0.30;;;7.00;99.60;;;;;;4161407;28;20497;-55
2024/03/24 06:23:25;;;;;;;1.05;0.38;;;7.00;99.40;;;;;;4130566;28;20385;-56
2024/03/24 06:25:26;;;;;;;1.40;0.63;;;7.00;99.60;;;;;;4130547;28;20479;-56
2024/03/24 06:27:29;;;;;;;2.60;1.88;;;7.00;98.80;;;;;;4130493;28;20050;-55
2024/03/24 06:29:32;;;;;;;0.50;0.30;;;6.90;98.60;;;;;;4130449;28;20050;-55
2024/03/24 06:31:33;;;;;;;0.55;0.30;;;6.90;98.60;;;;;;4114150;28;20074;-56
2024/03/24 06:33:35;;;;;;;0.70;0.40;;;6.90;98.70;;;;;;4130393;28;20060;-57
2024/03/24 06:35:37;;;;;;;3.50;1.30;;;6.90;98.70;;;;;;4114176;28;20055;-58
2024/03/24 06:37:38;;;;;;;3.53;1.30;;;6.90;99.00;;;;;;4130266;28;20092;-56
2024/03/24 06:39:39;;;;;;;0.77;0.30;;;7.00;98.80;;;;;;4121262;28;20046;-56
2024/03/24 06:41:43;;;;;;;3.83;1.00;;;7.00;98.70;;;;;;4146295;28;20045;-57
2024/03/24 06:43:45;;;;;;;2.10;1.00;;;7.00;98.60;;;;;;4146515;28;20050;-56
2024/03/24 06:45:48;;;;;;;0.52;0.52;;;7.00;99.00;;;;;;4130196;28;20054;-55
2024/03/24 06:47:50;;;;;;;1.73;0.80;;;7.00;98.40;;;;;;4146408;28;20053;-56
2024/03/24 06:49:51;;;;;;;2.53;1.13;;;7.10;98.70;;;;;;4146619;28;20503;-56
2024/03/24 06:51:52;;;;;;;3.20;1.70;;;7.00;98.50;;;;;;4146316;28;20042;-56
2024/03/24 06:53:54;;;;;;;0.73;0.68;;;7.00;98.60;;;;;;4146097;28;20061;-56
2024/03/24 06:55:55;;;;;;;1.33;0.40;;;7.10;98.40;;;;;;4130172;28;20047;-56
2024/03/24 06:57:57;;;;;;;2.80;0.50;;;7.10;98.50;;;;;;4146091;28;20052;-56
2024/03/24 07:00:00;;;;;;;0.90;0.70;;;7.10;98.40;;;;;;4146106;28;20038;-56
2024/03/24 07:02:01;;;;;;;0.55;0.25;;;7.20;98.50;;;;;;4146469;28;20048;-56
2024/03/24 07:04:03;;;;;;;1.45;0.43;;;7.20;98.60;;;;;;4146208;28;20050;-54
2024/03/24 07:06:06;;;;;;;0.90;0.43;;;7.20;98.30;;;;;;4146340;28;20093;-54
2024/03/24 07:08:07;;;;;;;1.38;0.43;;;7.20;98.60;;;;;;4146748;28;20405;-59
2024/03/24 07:10:10;;;;;;;1.65;0.38;;;7.30;98.40;;;;;;4146506;28;20090;-56
2024/03/24 07:12:11;;;;;;;0.80;0.65;;;7.40;98.20;;;;;;4146707;28;20064;-55
2024/03/24 07:14:13;;;;;;;1.90;0.45;;;7.30;98.40;;;;;;4145966;28;20068;-54
2024/03/24 07:16:16;;;;;;;0.82;0.50;;;7.20;98.00;;;;;;4146111;28;20090;-56
2024/03/24 07:18:17;;;;;;;6.45;1.05;;;7.20;98.00;;;;;;4146019;28;20113;-55
2024/03/24 07:20:18;;;;;;;0.30;0.30;;;7.20;98.10;;;;;;4146552;28;20417;-55
2024/03/24 07:22:20;;;;;;;1.08;0.40;;;7.30;98.30;;;;;;4146142;28;20058;-55
2024/03/24 07:24:21;;;;;;;0.20;0.20;;;7.30;97.90;;;;;;4146253;28;20061;-57
2024/03/24 07:26:23;;;;;;;1.73;1.00;;;7.30;98.10;;;;;;4145920;28;20054;-55
2024/03/24 07:28:24;;;;;;;0.47;0.28;;;7.30;98.30;;;;;;4145839;28;20056;-55
2024/03/24 07:30:25;;;;;;;1.02;0.60;;;7.30;97.90;;;;;;4145989;28;20056;-56
2024/03/24 07:32:28;;;;;;;1.52;0.65;;;7.40;98.00;;;;;;4145890;28;20042;-57
2024/03/24 07:34:30;;;;;;;1.27;0.60;;;7.60;98.20;;;;;;4145853;28;20052;-57
2024/03/24 07:36:31;;;;;;;1.15;0.90;;;7.70;97.80;;;;;;4146006;28;20100;-56
2024/03/24 07:38:32;;;;;;;3.70;0.75;;;8.00;97.70;;;;;;4129829;28;20050;-57
2024/03/24 07:40:34;;;;;;;1.77;0.52;;;8.20;97.30;;;;;;4145975;28;20054;-56
2024/03/24 07:42:35;;;;;;;0.73;0.32;;;8.60;96.60;;;;;;4145521;28;20046;-56
2024/03/24 07:44:37;;;;;;;4.82;1.13;;;9.10;96.40;;;;;;4129496;28;20052;-57
2024/03/24 07:46:39;;;;;;;0.20;0.20;;;9.00;95.40;;;;;;4145744;28;20474;-56
2024/03/24 07:48:41;;;;;;;1.08;0.32;;;8.80;95.70;;;;;;4146004;28;20109;-56
2024/03/24 07:50:43;;;;;;;1.45;1.17;;;9.10;96.40;;;;;;4149278;28;20408;-56
2024/03/24 07:52:44;;;;;;;0.60;0.20;;;9.50;95.40;;;;;;4162796;28;20041;-56
2024/03/24 07:54:46;;;;;;;2.75;1.70;;;9.80;95.30;;;;;;4162651;28;20049;-60
2024/03/24 07:56:47;;;;;;;0.77;0.40;;;9.60;95.00;;;;;;4162077;28;20063;-56
2024/03/24 07:58:48;;;;;;;2.70;0.50;;;9.40;95.60;;;;;;4162467;28;20046;-57
2024/03/24 08:00:51;;;;;;;1.00;0.45;;;9.10;95.30;;;;;;4162036;28;20056;-56
2024/03/24 08:02:52;;;;;;;1.58;0.40;;;9.00;96.20;;;;;;4162422;28;20147;-56
2024/03/24 08:04:55;;;;;;;0.55;0.35;;;9.10;97.00;;;;;;4162125;28;20041;-56
2024/03/24 08:06:56;;;;;;;0.85;0.55;;;9.00;96.80;;;;;;4162376;28;20559;-57
2024/03/24 08:08:57;;;;;;;3.28;1.40;;;9.20;97.00;;;;;;4162545;28;20053;-55
2024/03/24 08:10:59;;;;;;;2.10;0.57;;;9.30;97.00;;;;;;4148872;28;20054;-55
2024/03/24 08:13:00;;;;;;;1.13;0.40;;;9.30;96.40;;;;;;4158603;28;20517;-55
2024/03/24 08:15:03;;;;;;;5.57;0.98;;;9.30;96.60;;;;;;4148647;28;20096;-55
2024/03/24 08:17:04;;;;;;;3.80;0.85;;;9.30;96.00;;;;;;4148269;28;20058;-56
2024/03/24 08:19:06;;;;;;;11.07;1.27;;;9.30;96.40;;;;;;4148537;28;20060;-57
2024/03/24 08:21:09;;;;;;;2.17;0.30;;;9.90;96.70;;;;;;4148389;28;20129;-57
2024/03/24 08:23:11;;;;;;;3.63;0.30;;;10.20;95.50;;;;;;4148564;28;20046;-57
2024/03/24 08:25:12;;;;;;;1.20;0.60;;;10.10;95.10;;;;;;4148507;28;20050;-55
2024/03/24 08:27:14;;;;;;;1.80;1.17;;;9.80;95.30;;;;;;4148417;28;20049;-56
2024/03/24 08:29:15;;;;;;;7.55;0.43;;;9.80;95.40;;;;;;4148362;28;20042;-57
2024/03/24 08:31:17;;;;;;;2.35;1.15;;;9.80;95.50;;;;;;4148340;28;20063;-56
2024/03/24 08:33:18;;;;;;;4.95;1.95;;;9.70;95.60;;;;;;4148307;28;20050;-56
2024/03/24 08:35:20;;;;;;;1.90;0.52;;;9.80;95.80;;;;;;4148484;28;20054;-57
2024/03/24 08:37:22;;;;;;;1.10;0.47;;;9.90;95.50;;;;;;4149688;28;20046;-56
2024/03/24 08:39:24;;;;;;;0.68;0.50;;;9.90;95.60;;;;;;4149627;28;20469;-57
2024/03/24 08:41:25;;;;;;;0.93;0.40;;;9.80;95.30;;;;;;4147900;28;20432;-57
2024/03/24 08:43:27;;;;;;;1.52;0.50;;;9.90;95.80;;;;;;4148196;28;20062;-57
2024/03/24 08:45:28;;;;;;;0.85;0.35;;;9.70;95.70;;;;;;4153023;28;20436;-54
2024/03/24 08:47:30;;;;;;;0.45;0.32;;;9.50;95.50;;;;;;4148529;28;20508;-57
2024/03/24 08:49:31;;;;;;;2.67;1.63;;;9.40;96.10;;;;;;4148115;28;20377;-56
2024/03/24 08:51:33;;;;;;;1.27;0.40;;;9.40;96.20;;;;;;4147995;28;20084;-55
2024/03/24 08:53:36;;;;;;;4.00;1.17;;;9.50;95.80;;;;;;4147970;28;20053;-56
2024/03/24 08:55:37;;;;;;;1.20;0.43;;;9.60;96.20;;;;;;4148363;28;20058;-57
2024/03/24 08:57:41;;;;;;;1.08;0.80;;;9.60;96.10;;;;;;4148578;28;20101;-57
2024/03/24 08:59:42;;;;;;;0.25;0.25;;;9.50;96.10;;;;;;4148370;28;20050;-56
2024/03/24 09:01:44;;;;;;;0.95;0.25;;;9.50;96.30;;;;;;4148431;28;20080;-55
2024/03/24 09:03:45;;;;;;;0.88;0.30;;;9.60;96.30;;;;;;4148157;28;20089;-54
2024/03/24 09:05:47;;;;;;;2.92;1.20;;;9.50;95.80;;;;;;4147972;28;20042;-56
2024/03/24 09:07:48;;;;;;;5.30;1.20;;;9.60;95.70;;;;;;4147932;28;20499;-57
2024/03/24 09:09:51;;;;;;;1.20;0.52;;;9.50;96.00;;;;;;4147532;28;20046;-56
2024/03/24 09:11:52;;;;;;;1.63;0.68;;;9.60;96.10;;;;;;4148294;28;20062;-57
2024/03/24 09:13:53;;;;;;;0.77;0.30;;;9.50;96.50;;;;;;4148047;28;20045;-56
2024/03/24 09:15:56;;;;;;;1.27;0.82;;;9.70;96.40;;;;;;4148087;28;20052;-57
2024/03/24 09:17:57;;;;;;;4.28;0.82;;;10.00;96.00;;;;;;4147898;28;20057;-56
2024/03/24 09:19:59;;;;;;;1.10;0.68;;;10.10;95.70;;;;;;4147913;28;20513;-56
2024/03/24 09:22:00;;;;;;;3.78;0.98;;;10.10;95.40;;;;;;4147853;28;20505;-58
2024/03/24 09:24:01;;;;;;;0.47;0.30;;;10.20;95.40;;;;;;4147572;28;20049;-54
2024/03/24 09:26:04;;;;;;;0.90;0.40;;;10.40;95.30;;;;;;4148060;28;20406;-56
2024/03/24 09:28:06;;;;;;;0.47;0.47;;;10.50;95.30;;;;;;4148424;28;20100;-57
2024/03/24 09:30:08;;;;;;;1.70;0.88;;;10.70;95.20;;;;;;4148051;28;20096;-53
2024/03/24 09:32:10;;;;;;;2.13;1.15;;;10.90;95.50;;;;;;4147656;28;20100;-53
2024/03/24 09:34:11;;;;;;;0.60;0.25;;;10.90;95.20;;;;;;4147445;28;20054;-55
2024/03/24 09:36:15;;;;;;;0.75;0.45;;;11.00;94.80;;;;;;4147946;28;20075;-54
2024/03/24 09:38:16;;;;;;;2.90;0.47;;;10.90;94.60;;;;;;4147229;28;20137;-58
2024/03/24 09:40:18;;;;;;;2.03;0.32;;;10.80;94.60;;;;;;4148303;28;20042;-56
2024/03/24 09:42:21;;;;;;;0.75;0.50;;;10.90;94.90;;;;;;4147532;28;20045;-54
2024/03/24 09:44:23;;;;;;;1.27;0.75;;;10.80;95.30;;;;;;4147308;28;20046;-54
2024/03/24 09:46:25;;;;;;;1.83;0.65;;;10.90;94.90;;;;;;4147159;28;20045;-58
2024/03/24 09:48:28;;;;;;;2.08;0.98;;;10.90;94.90;;;;;;4147081;28;20052;-57
2024/03/24 09:50:32;;;;;;;0.65;0.40;;;10.80;94.50;;;;;;4147383;28;20052;-57
2024/03/24 09:52:34;;;;;;;4.57;1.90;;;10.80;94.80;;;;;;4146924;28;20054;-57
2024/03/24 09:54:36;;;;;;;0.43;0.30;;;11.00;94.80;;;;;;4147145;28;20050;-56
2024/03/24 09:56:38;;;;;;;1.48;0.60;;;10.90;94.70;;;;;;4148443;28;20456;-57
2024/03/24 09:58:44;;;;;;;1.23;0.82;;;10.90;94.70;;;;;;4146994;28;20187;-56
2024/03/24 10:00:46;;;;;;;1.15;0.60;;;11.00;95.10;;;;;;4147179;28;20054;-56
2024/03/24 10:02:48;;;;;;;0.55;0.20;;;11.10;94.00;;;;;;4147175;28;20057;-57
2024/03/24 10:04:50;;;;;;;0.40;0.38;;;11.10;94.20;;;;;;4147147;28;20042;-56
2024/03/24 10:06:51;;;;;;;0.38;0.25;;;11.30;94.80;;;;;;4146938;28;20049;-54
2024/03/24 10:08:53;;;;;;;6.18;1.13;;;11.40;94.10;;;;;;4146725;28;20058;-56
2024/03/24 10:10:54;;;;;;;3.08;0.95;;;11.60;94.30;;;;;;4146903;28;20464;-56
2024/03/24 10:12:57;;;;;;;2.13;1.05;;;11.70;93.40;;;;;;4146850;28;20049;-55
2024/03/24 10:15:15;;;;;;;0.70;0.35;;;11.60;93.60;;;;;;4147258;28;20052;-55
2024/03/24 10:17:19;;;;;;;2.85;0.85;;;11.50;93.30;;;;;;4146950;28;20060;-54
2024/03/24 10:19:23;;;;;;;1.38;1.15;;;11.50;93.40;;;;;;4147295;28;20060;-55
2024/03/24 10:21:25;;;;;;;1.38;0.40;;;11.40;93.70;;;;;;4146836;28;20058;-57
2024/03/24 10:23:29;;;;;;;1.85;0.70;;;11.60;94.10;;;;;;4146261;28;20053;-57
2024/03/24 10:25:32;;;;;;;4.68;0.60;;;11.70;93.50;;;;;;4146945;28;20104;-57
2024/03/24 10:27:34;;;;;;;1.95;0.85;;;11.80;93.40;;;;;;4146588;28;20054;-56
2024/03/24 10:29:35;;;;;;;4.80;1.02;;;11.80;93.20;;;;;;4146496;28;20046;-55
2024/03/24 10:31:38;;;;;;;0.95;0.35;;;11.90;93.70;;;;;;4146578;28;20054;-56
2024/03/24 10:33:40;;;;;;;2.60;0.38;;;11.80;93.10;;;;;;4146777;28;20076;-55
2024/03/24 10:35:44;;;;;;;5.05;0.93;;;11.60;92.70;;;;;;4146621;28;20048;-56
2024/03/24 10:37:46;;;;;;;0.60;0.30;;;11.60;92.40;;;;;;4146529;28;20056;-56
2024/03/24 10:39:48;;;;;;;0.50;0.40;;;11.40;92.60;;;;;;4146561;28;20068;-56
2024/03/24 10:41:53;;;;;;;3.00;0.75;;;11.40;93.00;;;;;;4146089;28;20057;-56